Time;durP1;ratioP1;P1;durP2;ratioP2;P2;SDS_P1;SDS_P2;PMS_P1;PMS_P2;Temp;Humidity;BMP_temperature;BMP_pressure;BME280_temperature;BME280_humidity;BME280_pressure;Samples;Min_cycle;Max_cycle;Signal;HPM_P1;HPM_P2
2021/07/19 00:00:08;;;;;;;1.63;1.53;;;20.50;99.90;;;;;;5038623;28;20181;-87
2021/07/19 00:02:34;;;;;;;1.10;0.60;;;20.50;99.90;;;;;;5046460;28;20185;-86
2021/07/19 00:04:59;;;;;;;0.57;0.57;;;20.50;99.90;;;;;;5051987;28;20213;-87
2021/07/19 00:07:25;;;;;;;0.60;0.50;;;20.50;99.90;;;;;;5051750;28;20289;-86
2021/07/19 00:09:51;;;;;;;2.00;1.03;;;20.40;99.90;;;;;;5033994;28;20178;-87
2021/07/19 00:12:17;;;;;;;0.57;0.57;;;20.50;99.90;;;;;;5051552;28;20256;-88
2021/07/19 00:14:46;;;;;;;0.50;0.50;;;20.40;99.90;;;;;;5033864;28;20530;-88
2021/07/19 00:17:14;;;;;;;0.70;0.70;;;20.40;99.90;;;;;;5051333;28;20209;-87
2021/07/19 00:19:40;;;;;;;0.60;0.60;;;20.40;99.90;;;;;;5050215;28;20197;-87
2021/07/19 00:22:06;;;;;;;0.40;0.40;;;20.30;99.90;;;;;;5033490;28;20185;-87
2021/07/19 00:24:32;;;;;;;0.47;0.47;;;20.30;99.90;;;;;;5030374;28;20720;-86
2021/07/19 00:26:58;;;;;;;0.50;0.50;;;20.30;99.90;;;;;;5043340;28;20331;-87
2021/07/19 00:29:24;;;;;;;3.23;2.47;;;20.20;99.90;;;;;;5051578;28;20562;-87
2021/07/19 00:31:49;;;;;;;0.50;0.50;;;20.20;99.90;;;;;;5028837;28;20178;-86
2021/07/19 00:34:15;;;;;;;1.07;0.60;;;20.10;99.90;;;;;;5051765;28;20181;-87
2021/07/19 00:36:41;;;;;;;1.10;0.77;;;20.20;99.90;;;;;;5033486;28;20201;-87
2021/07/19 00:39:10;;;;;;;2.00;0.70;;;20.20;99.90;;;;;;5051719;28;20181;-88
2021/07/19 00:41:38;;;;;;;0.70;0.63;;;20.20;99.90;;;;;;5033978;28;20684;-87
2021/07/19 00:44:05;;;;;;;0.50;0.50;;;20.10;99.90;;;;;;5033977;28;20292;-87
2021/07/19 00:46:31;;;;;;;0.30;0.30;;;20.10;99.90;;;;;;5032415;28;20202;-87
2021/07/19 00:48:57;;;;;;;1.40;0.43;;;20.00;99.90;;;;;;5034733;28;20564;-87
2021/07/19 00:51:24;;;;;;;1.57;0.97;;;20.00;99.90;;;;;;5055230;28;20173;-87
2021/07/19 00:53:49;;;;;;;1.07;0.87;;;20.00;99.90;;;;;;5036958;28;20186;-87
2021/07/19 00:56:16;;;;;;;0.60;0.60;;;20.00;99.90;;;;;;5054887;28;20551;-87
2021/07/19 00:58:45;;;;;;;0.70;0.70;;;20.00;99.90;;;;;;5036886;28;20196;-87
2021/07/19 01:01:11;;;;;;;1.97;0.93;;;20.00;99.90;;;;;;5037038;28;20177;-87
2021/07/19 01:03:38;;;;;;;0.60;0.60;;;19.90;99.90;;;;;;5037243;28;20181;-87
2021/07/19 01:06:05;;;;;;;0.50;0.50;;;19.90;99.90;;;;;;5036745;28;20229;-87
2021/07/19 01:08:32;;;;;;;0.53;0.53;;;19.90;99.90;;;;;;5054840;28;20616;-87
2021/07/19 01:10:58;;;;;;;0.40;0.40;;;19.80;99.90;;;;;;5054598;28;20178;-87
2021/07/19 01:13:24;;;;;;;0.93;0.93;;;19.80;99.90;;;;;;5036831;28;20186;-87
2021/07/19 01:15:50;;;;;;;0.70;0.67;;;19.80;99.90;;;;;;5054785;28;20221;-87
2021/07/19 01:18:15;;;;;;;0.43;0.43;;;19.80;99.90;;;;;;5041178;28;20181;-85
2021/07/19 01:21:00;;;;;;;0.37;0.37;;;19.90;99.90;;;;;;5035061;28;20178;-86
2021/07/19 01:23:53;;;;;;;0.30;0.30;;;20.00;99.90;;;;;;5050101;28;20204;-85
2021/07/19 01:26:27;;;;;;;0.43;0.30;;;20.00;99.90;;;;;;5035907;28;20229;-85
2021/07/19 01:28:54;;;;;;;2.60;0.40;;;20.10;99.90;;;;;;5045250;28;20258;-85
2021/07/19 01:31:29;;;;;;;1.97;0.57;;;20.10;99.90;;;;;;5035616;28;20182;-85
2021/07/19 01:33:59;;;;;;;0.63;0.63;;;20.10;99.90;;;;;;5050313;28;20185;-85
2021/07/19 01:36:29;;;;;;;0.70;0.70;;;20.00;99.90;;;;;;5053400;28;20209;-87
2021/07/19 01:38:56;;;;;;;0.40;0.40;;;20.00;99.90;;;;;;5052775;28;20181;-85
2021/07/19 01:41:23;;;;;;;0.80;0.50;;;19.80;99.90;;;;;;5036135;28;20186;-86
2021/07/19 01:43:50;;;;;;;0.70;0.70;;;19.80;99.90;;;;;;5052204;28;20275;-85
2021/07/19 01:46:17;;;;;;;0.47;0.43;;;19.70;99.90;;;;;;5052951;28;20292;-85
2021/07/19 01:48:43;;;;;;;0.50;0.50;;;19.60;99.90;;;;;;5035197;28;20186;-84
2021/07/19 01:51:10;;;;;;;0.27;0.27;;;19.60;99.90;;;;;;5047999;28;20174;-86
2021/07/19 01:53:36;;;;;;;0.27;0.27;;;19.60;99.90;;;;;;5052980;28;20189;-85
2021/07/19 01:56:03;;;;;;;1.27;1.17;;;19.50;99.90;;;;;;5035809;28;20202;-86
2021/07/19 01:58:29;;;;;;;2.00;1.07;;;19.50;99.90;;;;;;5040178;28;20210;-85
2021/07/19 02:00:56;;;;;;;0.47;0.43;;;19.40;99.90;;;;;;5028482;28;20178;-85
2021/07/19 02:03:23;;;;;;;0.57;0.57;;;19.50;99.90;;;;;;5035782;28;20196;-85
2021/07/19 02:05:50;;;;;;;0.47;0.47;;;19.60;99.90;;;;;;5024510;28;20206;-85
2021/07/19 02:08:17;;;;;;;0.20;0.20;;;19.70;99.90;;;;;;5050006;28;20185;-85
2021/07/19 02:10:53;;;;;;;0.40;0.40;;;19.70;99.90;;;;;;5026515;28;20215;-86
2021/07/19 02:13:21;;;;;;;0.33;0.33;;;19.70;99.90;;;;;;5051645;28;20550;-85
2021/07/19 02:15:51;;;;;;;0.77;0.77;;;19.60;99.90;;;;;;5030425;28;20203;-86
2021/07/19 02:18:19;;;;;;;1.10;1.00;;;19.60;99.90;;;;;;5051899;28;20323;-85
2021/07/19 02:20:45;;;;;;;0.30;0.30;;;19.60;99.90;;;;;;5034576;28;20216;-85
2021/07/19 02:23:13;;;;;;;0.30;0.30;;;19.60;99.90;;;;;;5043775;28;20185;-86
2021/07/19 02:25:40;;;;;;;0.60;0.60;;;19.60;99.90;;;;;;5052280;28;20292;-86
2021/07/19 02:28:09;;;;;;;0.40;0.40;;;19.60;99.90;;;;;;5051232;28;20186;-85
2021/07/19 02:30:35;;;;;;;0.70;0.70;;;19.60;99.90;;;;;;5053046;28;20184;-84
2021/07/19 02:33:02;;;;;;;0.70;0.67;;;19.60;99.90;;;;;;5052182;28;20189;-85
2021/07/19 02:35:29;;;;;;;0.53;0.53;;;19.50;99.90;;;;;;5052928;28;20231;-86
2021/07/19 02:38:02;;;;;;;1.10;1.03;;;19.60;99.90;;;;;;5051590;28;20188;-86
2021/07/19 02:40:29;;;;;;;0.37;0.37;;;19.60;99.90;;;;;;5052501;28;20189;-85
2021/07/19 02:42:58;;;;;;;0.73;0.50;;;19.50;99.90;;;;;;5031780;28;20569;-86
2021/07/19 02:45:25;;;;;;;0.60;0.60;;;19.40;99.90;;;;;;5052736;28;20209;-85
2021/07/19 02:47:53;;;;;;;0.33;0.33;;;19.30;99.90;;;;;;5042631;28;20207;-85
2021/07/19 02:50:23;;;;;;;0.63;0.60;;;19.30;99.90;;;;;;5048056;28;20186;-86
2021/07/19 02:52:49;;;;;;;0.83;0.40;;;19.20;99.90;;;;;;5031946;28;20650;-85
2021/07/19 02:55:16;;;;;;;0.40;0.40;;;19.20;99.90;;;;;;5047666;28;20194;-85
2021/07/19 02:57:42;;;;;;;0.30;0.30;;;19.20;99.90;;;;;;5048021;28;20220;-86
2021/07/19 03:00:11;;;;;;;0.50;0.50;;;19.20;99.90;;;;;;5052009;28;20189;-86
2021/07/19 03:02:51;;;;;;;0.57;0.57;;;19.20;99.90;;;;;;5052151;28;20596;-86
2021/07/19 03:05:19;;;;;;;0.43;0.40;;;19.20;99.90;;;;;;5050099;28;20294;-86
2021/07/19 03:07:48;;;;;;;0.60;0.60;;;19.20;99.90;;;;;;5031449;28;20343;-85
2021/07/19 03:10:15;;;;;;;0.20;0.20;;;19.30;99.90;;;;;;5033273;28;20209;-85
2021/07/19 03:12:42;;;;;;;0.93;0.93;;;19.40;99.90;;;;;;5028446;28;20184;-85
2021/07/19 03:15:09;;;;;;;0.60;0.60;;;19.40;99.90;;;;;;5050948;28;20567;-85
2021/07/19 03:17:37;;;;;;;0.87;0.80;;;19.30;99.90;;;;;;5051379;28;20752;-85
2021/07/19 03:20:05;;;;;;;0.40;0.40;;;19.20;99.90;;;;;;5033415;28;20733;-86
2021/07/19 03:22:31;;;;;;;1.07;0.70;;;19.20;99.90;;;;;;5033455;28;20281;-85
2021/07/19 03:24:59;;;;;;;0.60;0.60;;;19.10;99.90;;;;;;5026120;28;20209;-86
2021/07/19 03:27:26;;;;;;;0.47;0.47;;;19.00;99.90;;;;;;5030131;28;20224;-85
2021/07/19 03:29:52;;;;;;;0.70;0.70;;;19.10;99.90;;;;;;5052057;28;20186;-85
2021/07/19 03:32:23;;;;;;;0.70;0.70;;;19.00;99.90;;;;;;5032578;28;20186;-85
2021/07/19 03:34:49;;;;;;;0.50;0.50;;;18.90;99.90;;;;;;5049133;28;20559;-85
2021/07/19 03:37:16;;;;;;;2.10;0.70;;;18.90;99.90;;;;;;5047483;28;20247;-85
2021/07/19 03:39:43;;;;;;;0.40;0.40;;;18.90;99.90;;;;;;5033056;28;20276;-86
2021/07/19 03:42:11;;;;;;;0.33;0.33;;;18.90;99.90;;;;;;5048985;28;20239;-85
2021/07/19 03:44:38;;;;;;;0.40;0.40;;;18.90;99.90;;;;;;5041675;28;20222;-85
2021/07/19 03:47:04;;;;;;;0.50;0.43;;;18.90;99.90;;;;;;5030066;28;20206;-86
2021/07/19 03:49:32;;;;;;;0.20;0.20;;;18.90;99.90;;;;;;5033065;28;20268;-85
2021/07/19 03:51:58;;;;;;;0.50;0.47;;;18.80;99.90;;;;;;5033210;28;20224;-85
2021/07/19 03:54:24;;;;;;;0.87;0.30;;;18.80;99.90;;;;;;5051721;28;20193;-85
2021/07/19 03:56:50;;;;;;;0.50;0.50;;;19.00;99.90;;;;;;5033393;28;20206;-85
2021/07/19 03:59:20;;;;;;;0.67;0.60;;;19.30;99.90;;;;;;5050880;28;20178;-85
2021/07/19 04:01:47;;;;;;;0.50;0.50;;;19.70;99.90;;;;;;5047079;28;20534;-84
2021/07/19 04:04:19;;;;;;;0.43;0.43;;;19.80;99.90;;;;;;5051654;28;20197;-85
2021/07/19 04:06:45;;;;;;;0.60;0.60;;;20.00;99.90;;;;;;5044695;28;20199;-85
2021/07/19 04:09:12;;;;;;;0.47;0.40;;;20.20;99.90;;;;;;5043705;28;20699;-85
2021/07/19 04:11:39;;;;;;;1.23;0.60;;;20.40;99.90;;;;;;5032916;28;20178;-85
2021/07/19 04:14:09;;;;;;;0.97;0.80;;;20.80;99.90;;;;;;5032554;28;20664;-86
2021/07/19 04:16:36;;;;;;;0.70;0.70;;;21.40;99.90;;;;;;5038086;28;20236;-88
2021/07/19 04:19:02;;;;;;;1.10;0.70;;;21.60;99.90;;;;;;5050998;28;20260;-86
2021/07/19 04:21:30;;;;;;;0.63;0.60;;;21.90;99.90;;;;;;5051021;28;20274;-86
2021/07/19 04:23:57;;;;;;;0.50;0.50;;;22.30;99.90;;;;;;5036452;28;20209;-86
2021/07/19 04:26:23;;;;;;;0.50;0.50;;;21.60;99.90;;;;;;5055460;28;20202;-86
2021/07/19 04:28:49;;;;;;;1.07;0.67;;;21.10;99.90;;;;;;5054899;28;20715;-85
2021/07/19 04:31:16;;;;;;;0.83;0.60;;;20.60;99.90;;;;;;5054667;28;20181;-85
2021/07/19 04:33:49;;;;;;;0.30;0.30;;;20.50;99.90;;;;;;5049874;28;20598;-86
2021/07/19 04:36:17;;;;;;;0.60;0.60;;;20.40;99.90;;;;;;5042730;28;20228;-86
2021/07/19 04:38:45;;;;;;;0.33;0.33;;;20.40;99.90;;;;;;5054157;28;20228;-85
2021/07/19 04:41:11;;;;;;;0.87;0.73;;;20.20;99.90;;;;;;5036740;28;20269;-85
2021/07/19 04:43:37;;;;;;;0.40;0.40;;;20.30;99.90;;;;;;5047698;28;20266;-87
2021/07/19 04:46:03;;;;;;;0.87;0.60;;;20.40;99.90;;;;;;5028114;28;20642;-87
2021/07/19 04:48:29;;;;;;;2.67;0.90;;;20.30;99.90;;;;;;5037126;28;20181;-88
2021/07/19 04:50:55;;;;;;;0.60;0.60;;;20.00;99.90;;;;;;5054991;28;20220;-87
2021/07/19 04:53:21;;;;;;;0.40;0.40;;;20.10;99.90;;;;;;5054988;28;20209;-87
2021/07/19 04:55:53;;;;;;;0.50;0.50;;;20.10;99.90;;;;;;5036550;28;20201;-87
2021/07/19 04:58:22;;;;;;;0.60;0.60;;;19.70;99.90;;;;;;5033180;28;20546;-86
2021/07/19 05:01:00;;;;;;;0.43;0.43;;;19.60;99.90;;;;;;5036772;28;20641;-87
2021/07/19 05:03:29;;;;;;;0.43;0.43;;;19.70;99.90;;;;;;5031513;28;20193;-87
2021/07/19 05:05:56;;;;;;;0.43;0.40;;;19.60;99.90;;;;;;5033921;28;20225;-87
2021/07/19 05:08:24;;;;;;;1.10;0.63;;;19.70;99.90;;;;;;5033479;28;20181;-87
2021/07/19 05:10:51;;;;;;;0.50;0.50;;;19.70;99.90;;;;;;5034882;28;20178;-84
2021/07/19 05:13:18;;;;;;;0.70;0.33;;;19.60;99.90;;;;;;5028638;28;20186;-85
2021/07/19 05:15:45;;;;;;;0.77;0.53;;;19.50;99.90;;;;;;5053198;28;20245;-85
2021/07/19 05:18:11;;;;;;;0.37;0.37;;;19.60;99.90;;;;;;5053557;28;20185;-85
2021/07/19 05:20:40;;;;;;;1.70;0.63;;;19.60;99.90;;;;;;5032456;28;20202;-85
2021/07/19 05:23:06;;;;;;;4.53;0.60;;;19.70;99.90;;;;;;5028350;28;20220;-85
2021/07/19 05:25:34;;;;;;;1.00;0.73;;;19.70;99.90;;;;;;5032618;28;20654;-85
2021/07/19 05:28:05;;;;;;;1.10;0.50;;;19.60;99.90;;;;;;5033151;28;20186;-84
2021/07/19 05:30:32;;;;;;;0.57;0.57;;;19.80;99.90;;;;;;5048930;28;20181;-85
2021/07/19 05:32:58;;;;;;;1.17;1.03;;;20.00;99.90;;;;;;5025733;28;20313;-85
2021/07/19 05:35:24;;;;;;;0.93;0.87;;;19.90;99.90;;;;;;5044887;28;20269;-85
2021/07/19 05:37:50;;;;;;;0.40;0.40;;;20.00;99.90;;;;;;5046283;28;20243;-84
2021/07/19 05:40:17;;;;;;;1.90;0.57;;;20.00;99.90;;;;;;5053112;28;20197;-86
2021/07/19 05:42:45;;;;;;;1.37;0.70;;;20.20;99.90;;;;;;5053612;28;20197;-85
2021/07/19 05:45:12;;;;;;;1.07;0.97;;;20.20;99.90;;;;;;5036380;28;20240;-87
2021/07/19 05:47:37;;;;;;;1.33;0.50;;;20.40;99.90;;;;;;5052860;28;20198;-87
2021/07/19 05:50:05;;;;;;;0.33;0.33;;;20.50;99.90;;;;;;5053836;28;20232;-86
2021/07/19 05:52:31;;;;;;;0.60;0.60;;;20.50;99.90;;;;;;5035510;28;20189;-86
2021/07/19 05:54:57;;;;;;;0.70;0.50;;;20.60;99.90;;;;;;5036211;28;20251;-86
2021/07/19 05:57:29;;;;;;;0.40;0.40;;;20.80;99.90;;;;;;5052413;28;20202;-85
2021/07/19 05:59:57;;;;;;;1.50;1.23;;;21.10;99.90;;;;;;5051341;28;20185;-87
2021/07/19 06:02:24;;;;;;;0.40;0.40;;;21.00;99.90;;;;;;5052224;28;20189;-86
2021/07/19 06:04:49;;;;;;;0.57;0.43;;;21.10;99.90;;;;;;5035468;28;20213;-86
2021/07/19 06:07:15;;;;;;;1.60;0.93;;;21.30;99.90;;;;;;5053411;28;20698;-87
2021/07/19 06:09:41;;;;;;;0.67;0.63;;;21.30;99.90;;;;;;5051540;28;20189;-88
2021/07/19 06:12:07;;;;;;;0.60;0.50;;;21.40;99.90;;;;;;5053840;28;20207;-87
2021/07/19 06:14:33;;;;;;;0.23;0.23;;;21.30;99.90;;;;;;5050744;28;20198;-88
2021/07/19 06:16:59;;;;;;;0.60;0.60;;;21.00;99.90;;;;;;5028955;28;20216;-85
2021/07/19 06:19:24;;;;;;;1.30;1.13;;;20.90;99.90;;;;;;5035038;28;20628;-86
2021/07/19 06:21:55;;;;;;;3.40;1.00;;;20.80;99.90;;;;;;5052325;28;20186;-87
2021/07/19 06:24:21;;;;;;;0.60;0.60;;;20.60;99.90;;;;;;5053039;28;20221;-87
2021/07/19 06:26:46;;;;;;;0.63;0.63;;;20.70;99.90;;;;;;5035275;28;20202;-88
2021/07/19 06:29:39;;;;;;;0.40;0.40;;;20.60;99.90;;;;;;5049256;28;20231;-88
2021/07/19 06:32:06;;;;;;;0.50;0.50;;;20.70;99.90;;;;;;5053414;28;20178;-88
2021/07/19 06:34:32;;;;;;;0.47;0.47;;;20.90;99.90;;;;;;5053007;28;20184;-88
2021/07/19 06:36:57;;;;;;;0.60;0.60;;;20.90;99.90;;;;;;5052643;28;20216;-87
2021/07/19 06:39:23;;;;;;;0.33;0.33;;;21.10;99.90;;;;;;5053048;28;20190;-88
2021/07/19 06:41:56;;;;;;;0.47;0.47;;;21.40;99.90;;;;;;5035095;28;20196;-87
2021/07/19 06:44:22;;;;;;;1.47;0.70;;;21.70;99.90;;;;;;5048806;28;20240;-88
2021/07/19 06:46:48;;;;;;;1.57;1.27;;;21.50;99.90;;;;;;5051124;28;20248;-87
2021/07/19 06:49:14;;;;;;;0.53;0.53;;;21.70;99.90;;;;;;5035285;28;20182;-87
2021/07/19 06:51:39;;;;;;;1.47;0.80;;;21.40;99.90;;;;;;5035306;28;20641;-88
2021/07/19 06:54:05;;;;;;;1.10;1.00;;;21.40;99.90;;;;;;5035420;28;20185;-87
2021/07/19 06:56:32;;;;;;;0.90;0.30;;;21.40;99.90;;;;;;5035034;28;20217;-88
2021/07/19 06:58:58;;;;;;;3.40;2.73;;;21.50;99.90;;;;;;5035191;28;20218;-88
2021/07/19 07:01:23;;;;;;;0.57;0.57;;;21.30;99.90;;;;;;5042609;28;20193;-88
2021/07/19 07:03:49;;;;;;;1.13;1.00;;;21.20;99.90;;;;;;5030799;28;20562;-88
2021/07/19 07:06:14;;;;;;;0.60;0.60;;;21.50;99.90;;;;;;5034897;28;20674;-88
2021/07/19 07:08:55;;;;;;;0.57;0.57;;;21.60;99.90;;;;;;5034666;28;20213;-87
2021/07/19 07:11:21;;;;;;;0.50;0.50;;;22.00;99.90;;;;;;5035003;28;20201;-88
2021/07/19 07:13:47;;;;;;;0.60;0.60;;;22.00;99.90;;;;;;5034878;28;20215;-88
2021/07/19 07:16:13;;;;;;;0.50;0.50;;;22.40;99.90;;;;;;5052472;28;20771;-88
2021/07/19 07:18:38;;;;;;;0.33;0.33;;;22.10;99.90;;;;;;5027234;28;20703;-87
2021/07/19 07:21:04;;;;;;;1.33;1.23;;;22.00;99.90;;;;;;5051689;28;20190;-86
2021/07/19 07:23:29;;;;;;;0.87;0.77;;;21.70;99.90;;;;;;5052793;28;20219;-87
2021/07/19 07:25:56;;;;;;;0.63;0.30;;;21.70;99.90;;;;;;5034664;28;20217;-86
2021/07/19 07:28:21;;;;;;;1.13;1.03;;;21.90;99.90;;;;;;5034467;28;20186;-86
2021/07/19 07:30:47;;;;;;;0.63;0.53;;;21.80;99.90;;;;;;5052530;28;20178;-87
2021/07/19 07:33:12;;;;;;;0.37;0.37;;;21.70;99.90;;;;;;5052531;28;20793;-86
2021/07/19 07:35:40;;;;;;;0.70;0.47;;;21.80;99.90;;;;;;5034445;28;20269;-86
2021/07/19 07:38:07;;;;;;;0.73;0.73;;;22.20;99.90;;;;;;5034329;28;20186;-87
2021/07/19 07:40:33;;;;;;;0.63;0.63;;;21.80;99.90;;;;;;5034589;28;20684;-86
2021/07/19 07:42:59;;;;;;;0.97;0.70;;;21.80;99.90;;;;;;5052312;28;20178;-87
2021/07/19 07:45:24;;;;;;;0.90;0.90;;;21.50;99.90;;;;;;5034477;28;20236;-87
2021/07/19 07:47:50;;;;;;;0.40;0.40;;;21.70;99.90;;;;;;5034542;28;20201;-86
2021/07/19 07:50:16;;;;;;;0.60;0.60;;;21.90;99.90;;;;;;5052231;28;20177;-87
2021/07/19 07:52:42;;;;;;;0.43;0.43;;;21.70;99.90;;;;;;5034708;28;20182;-88
2021/07/19 07:55:08;;;;;;;0.53;0.53;;;21.90;99.90;;;;;;5052243;28;20186;-86
2021/07/19 07:57:34;;;;;;;0.40;0.40;;;22.20;99.90;;;;;;5035567;28;20224;-87
2021/07/19 07:59:59;;;;;;;0.43;0.43;;;22.20;99.90;;;;;;5038553;28;20844;-86
2021/07/19 08:02:25;;;;;;;0.77;0.37;;;22.00;99.90;;;;;;5037822;28;20611;-86
2021/07/19 08:04:50;;;;;;;0.97;0.90;;;21.70;99.90;;;;;;5038266;28;20216;-86
2021/07/19 08:07:16;;;;;;;0.70;0.60;;;21.50;99.90;;;;;;5038257;28;20212;-87
2021/07/19 08:09:42;;;;;;;0.70;0.67;;;21.50;99.90;;;;;;5038323;28;20189;-87
2021/07/19 08:12:08;;;;;;;0.53;0.30;;;21.50;99.90;;;;;;5038297;28;20182;-87
2021/07/19 08:14:33;;;;;;;0.40;0.40;;;21.60;99.90;;;;;;5038086;28;20186;-87
2021/07/19 08:16:59;;;;;;;0.40;0.40;;;21.80;99.90;;;;;;5037887;28;20223;-87
2021/07/19 08:19:32;;;;;;;0.83;0.83;;;21.70;99.90;;;;;;5038169;28;20199;-88
2021/07/19 08:21:58;;;;;;;0.53;0.53;;;21.80;99.90;;;;;;5038211;28;20731;-87
2021/07/19 08:24:24;;;;;;;0.50;0.50;;;21.90;99.90;;;;;;5037948;28;20209;-87
2021/07/19 08:26:50;;;;;;;0.60;0.60;;;21.90;99.90;;;;;;5044435;28;20197;-87
2021/07/19 08:29:16;;;;;;;0.57;0.57;;;22.50;99.90;;;;;;5053172;28;20185;-86
2021/07/19 08:31:44;;;;;;;0.27;0.27;;;22.30;99.90;;;;;;5055261;28;20237;-87
2021/07/19 08:34:10;;;;;;;0.67;0.60;;;23.10;99.90;;;;;;5036777;28;20182;-87
2021/07/19 08:36:36;;;;;;;0.50;0.50;;;23.20;99.90;;;;;;5037084;28;20692;-87
2021/07/19 08:39:03;;;;;;;1.03;0.90;;;22.80;99.90;;;;;;5053000;28;20186;-86
2021/07/19 08:41:28;;;;;;;0.47;0.47;;;22.70;99.90;;;;;;5036943;28;20557;-86
2021/07/19 08:43:56;;;;;;;0.40;0.40;;;22.50;99.90;;;;;;5037000;28;20196;-86
2021/07/19 08:46:22;;;;;;;2.97;0.77;;;22.60;99.90;;;;;;5026314;28;20217;-86
2021/07/19 08:48:52;;;;;;;1.33;0.73;;;22.90;99.90;;;;;;5032778;28;20175;-86
2021/07/19 08:51:18;;;;;;;0.93;0.80;;;23.50;99.90;;;;;;5045914;28;20178;-86
2021/07/19 08:53:45;;;;;;;0.60;0.60;;;23.10;99.90;;;;;;5036403;28;20182;-86
2021/07/19 08:56:13;;;;;;;0.67;0.50;;;22.70;99.90;;;;;;5037139;28;20301;-86
2021/07/19 08:58:41;;;;;;;0.87;0.60;;;23.30;99.90;;;;;;5036911;28;20188;-86
2021/07/19 09:01:07;;;;;;;0.87;0.87;;;23.60;99.90;;;;;;5054359;28;20192;-86
2021/07/19 09:03:32;;;;;;;0.40;0.40;;;22.90;99.90;;;;;;5036527;28;20186;-86
2021/07/19 09:05:58;;;;;;;1.27;0.80;;;23.30;99.90;;;;;;5052574;28;20298;-87
2021/07/19 09:08:27;;;;;;;0.30;0.30;;;23.70;99.90;;;;;;5035122;28;20209;-87
2021/07/19 09:10:53;;;;;;;1.07;0.67;;;24.10;99.90;;;;;;5035629;28;20756;-86
2021/07/19 09:13:19;;;;;;;0.80;0.77;;;24.30;99.90;;;;;;5036791;28;20184;-87
2021/07/19 09:15:45;;;;;;;0.40;0.40;;;23.90;99.90;;;;;;5036148;28;20846;-85
2021/07/19 09:18:20;;;;;;;0.27;0.27;;;23.90;99.90;;;;;;5033446;28;20189;-86
2021/07/19 09:20:46;;;;;;;0.70;0.70;;;24.60;99.90;;;;;;5053702;28;20182;-88
2021/07/19 09:23:12;;;;;;;0.47;0.40;;;24.70;99.90;;;;;;5030652;28;20178;-88
2021/07/19 09:25:39;;;;;;;1.07;0.60;;;24.20;99.90;;;;;;5023255;28;20213;-87
2021/07/19 09:28:12;;;;;;;0.73;0.50;;;23.70;99.90;;;;;;5054358;28;20215;-87
2021/07/19 09:30:40;;;;;;;0.50;0.50;;;24.40;99.90;;;;;;5035780;28;20280;-88
2021/07/19 09:33:16;;;;;;;0.40;0.40;;;24.70;99.90;;;;;;5036003;28;20186;-88
2021/07/19 09:35:46;;;;;;;0.63;0.50;;;24.60;99.90;;;;;;5023238;28;20201;-87
2021/07/19 09:38:16;;;;;;;0.60;0.50;;;24.80;99.90;;;;;;5035959;28;20681;-87
2021/07/19 09:40:45;;;;;;;0.97;0.97;;;24.60;99.90;;;;;;5054018;28;20193;-87
2021/07/19 09:43:20;;;;;;;1.47;0.70;;;24.90;99.90;;;;;;5035667;28;20281;-88
2021/07/19 09:45:59;;;;;;;1.80;0.87;;;24.70;99.90;;;;;;5036084;28;20296;-87
2021/07/19 09:48:27;;;;;;;0.70;0.70;;;24.50;99.90;;;;;;5035871;28;20220;-88
2021/07/19 09:50:54;;;;;;;0.83;0.83;;;24.50;99.90;;;;;;5053402;28;20185;-88
2021/07/19 09:53:38;;;;;;;0.40;0.40;;;23.80;99.90;;;;;;5035122;28;20174;-87
2021/07/19 09:56:26;;;;;;;0.77;0.63;;;24.40;99.90;;;;;;5035691;28;20229;-88
2021/07/19 09:59:05;;;;;;;0.67;0.40;;;24.50;99.90;;;;;;5032443;28;20190;-88
2021/07/19 10:01:34;;;;;;;0.80;0.70;;;24.50;99.90;;;;;;5050229;28;20174;-88
2021/07/19 10:04:08;;;;;;;0.40;0.37;;;24.10;99.90;;;;;;5053594;28;20185;-88
2021/07/19 10:06:36;;;;;;;0.40;0.40;;;24.60;99.90;;;;;;5035837;28;20552;-88
2021/07/19 10:09:05;;;;;;;0.53;0.53;;;24.50;99.90;;;;;;5033180;28;20174;-87
2021/07/19 10:11:32;;;;;;;0.30;0.30;;;24.30;99.90;;;;;;5053217;28;20205;-88
2021/07/19 10:13:59;;;;;;;2.23;1.20;;;24.60;99.90;;;;;;5053787;28;20617;-88
2021/07/19 10:16:28;;;;;;;8.50;1.00;;;24.30;99.90;;;;;;5030940;28;20226;-88
2021/07/19 10:18:55;;;;;;;0.43;0.43;;;24.20;99.90;;;;;;5021902;28;20214;-86
2021/07/19 10:21:29;;;;;;;1.47;0.47;;;24.60;99.90;;;;;;5051168;28;20178;-87
2021/07/19 10:24:04;;;;;;;0.77;0.77;;;25.30;99.90;;;;;;5053096;28;20219;-86
2021/07/19 10:26:30;;;;;;;1.60;1.50;;;25.10;99.90;;;;;;5021814;28;20193;-86
2021/07/19 10:28:58;;;;;;;0.93;0.90;;;24.60;99.90;;;;;;5035236;28;20181;-86
2021/07/19 10:31:24;;;;;;;0.73;0.67;;;24.50;99.90;;;;;;5035182;28;20178;-87
2021/07/19 10:33:51;;;;;;;1.43;0.87;;;24.60;99.90;;;;;;5050783;28;20174;-87
2021/07/19 10:36:29;;;;;;;0.60;0.60;;;24.50;99.90;;;;;;5051235;28;20720;-87
2021/07/19 10:39:23;;;;;;;0.97;0.70;;;24.80;99.90;;;;;;5030909;28;20284;-88
2021/07/19 10:42:09;;;;;;;0.53;0.53;;;25.20;99.90;;;;;;5033355;28;20182;-88
2021/07/19 10:44:37;;;;;;;0.90;0.80;;;25.10;99.90;;;;;;5051194;28;20239;-88
2021/07/19 10:47:19;;;;;;;2.93;0.90;;;24.90;99.90;;;;;;5052440;28;20288;-88
2021/07/19 10:49:56;;;;;;;1.23;1.20;;;24.80;99.90;;;;;;5028682;28;20726;-88
2021/07/19 10:52:38;;;;;;;0.93;0.67;;;25.30;99.90;;;;;;5050534;28;20185;-88
2021/07/19 10:55:07;;;;;;;1.47;1.13;;;25.60;99.90;;;;;;5050347;28;20190;-88
2021/07/19 10:57:38;;;;;;;1.17;0.63;;;25.20;99.90;;;;;;5034435;28;20621;-88
2021/07/19 11:00:08;;;;;;;0.67;0.53;;;25.10;99.90;;;;;;5033962;28;20280;-88
2021/07/19 11:02:34;;;;;;;1.47;1.37;;;24.90;99.90;;;;;;5038826;28;20246;-88
2021/07/19 11:05:27;;;;;;;0.80;0.80;;;24.80;99.90;;;;;;5053983;28;20213;-88
2021/07/19 11:08:43;;;;;;;0.70;0.70;;;25.10;99.90;;;;;;5046940;28;21055;-88
2021/07/19 11:11:10;;;;;;;0.47;0.47;;;25.30;99.90;;;;;;5052331;28;20166;-88
2021/07/19 11:13:36;;;;;;;1.43;0.60;;;25.70;99.90;;;;;;5033819;28;20327;-89
2021/07/19 11:16:14;;;;;;;3.40;2.13;;;26.10;99.90;;;;;;5034422;28;20218;-88
2021/07/19 11:18:40;;;;;;;0.63;0.50;;;25.60;99.90;;;;;;5030875;28;20186;-88
2021/07/19 11:21:06;;;;;;;1.07;1.00;;;25.80;99.90;;;;;;5051909;28;20192;-88
2021/07/19 11:23:35;;;;;;;1.13;1.13;;;25.70;99.90;;;;;;5034253;28;20181;-90
2021/07/19 11:26:05;;;;;;;2.00;0.87;;;25.70;99.90;;;;;;5052325;28;20705;-89
2021/07/19 11:28:40;;;;;;;1.30;0.90;;;26.30;99.90;;;;;;5043030;28;20649;-88
2021/07/19 11:31:06;;;;;;;0.90;0.90;;;26.40;99.90;;;;;;5033478;28;20177;-87
2021/07/19 11:33:37;;;;;;;0.83;0.83;;;25.80;99.90;;;;;;5031596;28;20184;-88
2021/07/19 11:36:57;;;;;;;1.27;1.17;;;25.90;99.90;;;;;;5028694;28;20210;-88
2021/07/19 11:39:22;;;;;;;0.70;0.70;;;25.30;99.90;;;;;;5053102;28;20197;-88
2021/07/19 11:42:02;;;;;;;1.30;1.07;;;25.60;99.90;;;;;;5034172;28;20178;-88
2021/07/19 11:44:32;;;;;;;1.80;1.27;;;25.80;99.90;;;;;;5039354;28;20250;-88
2021/07/19 11:46:59;;;;;;;1.67;1.57;;;26.00;99.90;;;;;;5049516;28;20748;-88
2021/07/19 11:49:25;;;;;;;5.13;1.20;;;25.90;99.90;;;;;;5052955;28;20558;-88
2021/07/19 11:51:51;;;;;;;1.37;0.80;;;25.50;99.90;;;;;;5029518;28;20274;-88
2021/07/19 11:54:18;;;;;;;2.53;1.80;;;25.20;99.90;;;;;;5051320;28;20181;-88
2021/07/19 11:57:10;;;;;;;1.07;0.97;;;25.50;99.90;;;;;;5029465;28;20717;-88
2021/07/19 11:59:38;;;;;;;3.50;1.40;;;25.60;99.90;;;;;;5025402;28;20186;-91
2021/07/19 12:02:04;;;;;;;1.70;1.23;;;25.60;99.90;;;;;;5033560;28;20197;-88
2021/07/19 12:04:45;;;;;;;3.53;1.93;;;25.60;99.90;;;;;;5023259;28;20210;-90
2021/07/19 12:07:12;;;;;;;1.57;1.30;;;25.10;99.90;;;;;;5036682;28;20205;-88
2021/07/19 12:09:41;;;;;;;2.37;1.30;;;25.30;99.90;;;;;;5030979;28;20253;-89
2021/07/19 12:12:08;;;;;;;1.70;1.23;;;25.80;99.90;;;;;;5052060;28;20182;-88
2021/07/19 12:14:33;;;;;;;1.80;1.70;;;26.30;99.90;;;;;;5032978;28;20189;-88
2021/07/19 12:16:59;;;;;;;2.07;1.73;;;25.60;99.90;;;;;;5034539;28;20209;-89
2021/07/19 12:19:26;;;;;;;0.77;0.77;;;25.50;99.90;;;;;;5052383;28;20186;-88
2021/07/19 12:21:55;;;;;;;1.80;1.43;;;25.60;99.90;;;;;;5035361;28;20680;-88
2021/07/19 12:24:25;;;;;;;1.63;1.40;;;25.70;99.90;;;;;;5031064;28;20206;-88
2021/07/19 12:26:55;;;;;;;2.73;1.60;;;25.60;99.90;;;;;;5048559;28;20252;-88
2021/07/19 12:29:26;;;;;;;2.30;1.40;;;25.60;99.90;;;;;;5051616;28;20220;-88
2021/07/19 12:31:53;;;;;;;2.07;1.53;;;25.20;99.90;;;;;;5051774;28;20174;-88
2021/07/19 12:34:31;;;;;;;2.17;1.63;;;25.60;99.90;;;;;;5044526;28;20188;-88
2021/07/19 12:36:59;;;;;;;2.47;2.00;;;26.10;99.90;;;;;;5032355;28;20337;-88
2021/07/19 12:39:29;;;;;;;1.57;1.27;;;26.00;99.90;;;;;;5020551;28;20654;-88
2021/07/19 12:41:56;;;;;;;1.63;1.50;;;25.60;99.90;;;;;;5021898;28;20229;-88
2021/07/19 12:44:26;;;;;;;2.80;2.13;;;25.90;99.90;;;;;;5033112;28;20209;-88
2021/07/19 12:46:53;;;;;;;1.97;1.63;;;25.60;99.90;;;;;;5048876;28;20221;-88
2021/07/19 12:49:30;;;;;;;2.07;1.87;;;26.00;99.90;;;;;;5056482;28;20181;-89
2021/07/19 12:52:13;;;;;;;3.03;1.83;;;26.10;99.90;;;;;;5034838;28;20192;-88
2021/07/19 12:54:39;;;;;;;2.40;1.43;;;25.80;99.90;;;;;;5030092;28;20219;-88